createdAt,value
2024-01-16T00:01:57.836Z,-2.80
2024-01-16T00:04:24.797Z,-2.80
2024-01-16T00:06:51.836Z,-2.80
2024-01-16T00:09:18.807Z,-2.80
2024-01-16T00:11:46.084Z,-2.80
2024-01-16T00:14:13.321Z,-2.80
2024-01-16T00:16:44.935Z,-2.80
2024-01-16T00:19:13.468Z,-2.80
2024-01-16T00:21:48.997Z,-2.90
2024-01-16T00:24:16.165Z,-2.90
2024-01-16T00:26:43.230Z,-3.10
2024-01-16T00:29:10.766Z,-3.20
2024-01-16T00:31:37.825Z,-3.30
2024-01-16T00:34:04.977Z,-3.40
2024-01-16T00:36:32.175Z,-3.50
2024-01-16T00:38:59.111Z,-3.60
2024-01-16T00:41:26.184Z,-3.50
2024-01-16T00:43:53.172Z,-3.60
2024-01-16T00:46:20.157Z,-3.60
2024-01-16T00:48:47.475Z,-3.70
2024-01-16T00:51:14.608Z,-3.70
2024-01-16T00:53:45.361Z,-3.70
2024-01-16T00:56:13.770Z,-3.80
2024-01-16T00:58:41.145Z,-3.90
2024-01-16T01:01:08.350Z,-3.90
2024-01-16T01:03:35.621Z,-3.70
2024-01-16T01:06:02.800Z,-3.80
2024-01-16T01:08:29.849Z,-3.90
2024-01-16T01:10:56.911Z,-3.90
2024-01-16T01:13:24.259Z,-4.00
2024-01-16T01:15:51.265Z,-3.90
2024-01-16T01:18:18.333Z,-4.00
2024-01-16T01:20:45.669Z,-4.10
2024-01-16T01:23:12.777Z,-4.10
2024-01-16T01:25:39.861Z,-4.20
2024-01-16T01:28:06.919Z,-4.20
2024-01-16T01:30:33.924Z,-4.30
2024-01-16T01:33:01.105Z,-4.20
2024-01-16T01:35:28.553Z,-4.20
2024-01-16T01:37:55.703Z,-4.20
2024-01-16T01:40:22.705Z,-4.20
2024-01-16T01:42:49.647Z,-4.30
2024-01-16T01:45:16.702Z,-4.30
2024-01-16T01:47:43.903Z,-4.40
2024-01-16T01:50:11.779Z,-4.40
2024-01-16T01:52:41.339Z,-4.40
2024-01-16T01:55:12.631Z,-4.40
2024-01-16T01:57:39.958Z,-4.40
2024-01-16T02:00:07.707Z,-4.40
2024-01-16T02:02:44.343Z,-4.40
2024-01-16T02:05:11.739Z,-4.50
2024-01-16T02:07:39.664Z,-4.40
2024-01-16T02:10:07.298Z,-4.40
2024-01-16T02:12:34.359Z,-4.30
2024-01-16T02:15:01.391Z,-4.30
2024-01-16T02:17:28.549Z,-4.20
2024-01-16T02:19:55.571Z,-4.30
2024-01-16T02:22:26.141Z,-4.30
2024-01-16T02:24:53.149Z,-4.30
2024-01-16T02:27:20.072Z,-4.40
2024-01-16T02:29:47.497Z,-4.40
2024-01-16T02:32:15.553Z,-4.30
2024-01-16T02:34:43.059Z,-4.20
2024-01-16T02:37:10.346Z,-4.20
2024-01-16T02:39:37.352Z,-4.30
2024-01-16T02:42:04.505Z,-4.30
2024-01-16T02:44:31.766Z,-4.30
2024-01-16T02:46:58.826Z,-4.20
2024-01-16T02:49:27.225Z,-4.30
2024-01-16T02:51:55.547Z,-4.30
2024-01-16T02:54:23.252Z,-4.40
2024-01-16T02:56:50.444Z,-4.40
2024-01-16T02:59:18.049Z,-4.40
2024-01-16T03:01:45.089Z,-4.50
2024-01-16T03:04:12.651Z,-4.60
2024-01-16T03:06:40.013Z,-4.60
2024-01-16T03:09:07.745Z,-4.80
2024-01-16T03:11:34.902Z,-4.70
2024-01-16T03:14:01.975Z,-4.70
2024-01-16T03:16:29.114Z,-4.80
2024-01-16T03:18:56.332Z,-4.80
2024-01-16T03:21:23.532Z,-4.90
2024-01-16T03:23:51.231Z,-4.90
2024-01-16T03:26:18.730Z,-4.90
2024-01-16T03:28:46.691Z,-5.00
2024-01-16T03:31:18.577Z,-5.00
2024-01-16T03:33:45.848Z,-5.00
2024-01-16T03:36:14.088Z,-5.10
2024-01-16T03:38:42.784Z,-5.10
2024-01-16T03:41:11.763Z,-5.10
2024-01-16T03:43:38.857Z,-5.20
2024-01-16T03:46:05.911Z,-5.20
2024-01-16T03:48:33.009Z,-5.20
2024-01-16T03:51:00.054Z,-5.20
2024-01-16T03:53:27.041Z,-5.30
2024-01-16T03:55:54.078Z,-5.30
2024-01-16T03:58:21.089Z,-5.30
2024-01-16T04:00:48.546Z,-5.40
2024-01-16T04:03:15.691Z,-5.50
2024-01-16T04:05:42.790Z,-5.60
2024-01-16T04:08:09.831Z,-5.70
2024-01-16T04:10:36.874Z,-5.80
2024-01-16T04:13:05.148Z,-5.90
2024-01-16T04:15:32.087Z,-6.00
2024-01-16T04:17:59.047Z,-6.00
2024-01-16T04:20:26.104Z,-6.10
2024-01-16T04:22:53.099Z,-6.20
2024-01-16T04:25:20.029Z,-6.30
2024-01-16T04:27:47.242Z,-6.30
2024-01-16T04:30:14.592Z,-6.30
2024-01-16T04:32:42.225Z,-6.40
2024-01-16T04:35:10.163Z,-6.40
2024-01-16T04:37:37.759Z,-6.50
2024-01-16T04:40:06.497Z,-6.50
2024-01-16T04:42:33.816Z,-6.50
2024-01-16T04:45:00.787Z,-6.50
2024-01-16T04:47:27.807Z,-6.50
2024-01-16T04:49:54.889Z,-6.60
2024-01-16T04:52:21.802Z,-6.70
2024-01-16T04:54:48.760Z,-6.70
2024-01-16T04:57:16.303Z,-6.80
2024-01-16T04:59:43.269Z,-6.90
2024-01-16T05:02:10.294Z,-7.00
2024-01-16T05:04:39.440Z,-7.00
2024-01-16T05:07:06.448Z,-6.90
2024-01-16T05:09:33.615Z,-7.00
2024-01-16T05:12:01.097Z,-7.00
2024-01-16T05:14:28.113Z,-7.00
2024-01-16T05:16:55.090Z,-7.10
2024-01-16T05:19:22.074Z,-7.10
2024-01-16T05:21:49.067Z,-7.20
2024-01-16T05:24:16.029Z,-7.10
2024-01-16T05:26:43.109Z,-7.10
2024-01-16T05:29:10.245Z,-7.10
2024-01-16T05:31:43.329Z,-7.10
2024-01-16T05:34:13.664Z,-7.10
2024-01-16T05:36:40.619Z,-7.10
2024-01-16T05:39:07.786Z,-7.10
2024-01-16T05:41:35.600Z,-7.10
2024-01-16T05:44:06.397Z,-7.30
2024-01-16T05:46:35.352Z,-7.30
2024-01-16T05:49:02.538Z,-7.30
2024-01-16T05:51:32.836Z,-7.30
2024-01-16T05:53:59.868Z,-7.10
2024-01-16T05:56:26.871Z,-7.10
2024-01-16T05:58:53.825Z,-7.40
2024-01-16T06:01:20.812Z,-7.50
2024-01-16T06:03:50.212Z,-7.60
2024-01-16T06:06:17.943Z,-7.70
2024-01-16T06:08:45.382Z,-7.70
2024-01-16T06:11:14.826Z,-7.70
2024-01-16T06:13:42.435Z,-7.60
2024-01-16T06:16:09.501Z,-7.50
2024-01-16T06:18:37.116Z,-7.40
2024-01-16T06:21:04.804Z,-7.40
2024-01-16T06:23:31.842Z,-7.30
2024-01-16T06:26:00.440Z,-7.30
2024-01-16T06:28:27.337Z,-7.30
2024-01-16T06:30:54.269Z,-7.30
2024-01-16T06:33:21.362Z,-7.20
2024-01-16T06:35:51.070Z,-7.30
2024-01-16T06:38:19.755Z,-7.30
2024-01-16T06:40:46.748Z,-7.30
2024-01-16T06:43:16.730Z,-7.30
2024-01-16T06:45:44.493Z,-7.30
2024-01-16T06:48:12.093Z,-7.30
2024-01-16T06:50:39.449Z,-7.10
2024-01-16T06:53:06.384Z,-7.20
2024-01-16T06:55:33.287Z,-7.10
2024-01-16T06:58:00.252Z,-7.10
2024-01-16T07:00:28.099Z,-7.20
2024-01-16T07:02:57.794Z,-7.20
2024-01-16T07:05:24.858Z,-7.10
2024-01-16T07:07:51.786Z,-7.10
2024-01-16T07:10:24.827Z,-7.10
2024-01-16T07:12:52.748Z,-7.30
2024-01-16T07:15:19.905Z,-7.30
2024-01-16T07:17:47.427Z,-7.20
2024-01-16T07:20:14.717Z,-7.20
2024-01-16T07:22:41.826Z,-7.20
2024-01-16T07:25:09.284Z,-7.20
2024-01-16T07:27:36.404Z,-7.10
2024-01-16T07:30:05.853Z,-7.10
2024-01-16T07:32:33.476Z,-7.10
2024-01-16T07:35:00.716Z,-7.20
2024-01-16T07:37:27.642Z,-7.20
2024-01-16T07:39:54.876Z,-7.20
2024-01-16T07:42:21.808Z,-7.10
2024-01-16T07:44:49.291Z,-7.10
2024-01-16T07:47:16.403Z,-7.00
2024-01-16T07:49:43.371Z,-6.90
2024-01-16T07:52:10.433Z,-6.80
2024-01-16T07:54:37.420Z,-6.60
2024-01-16T07:57:04.511Z,-6.40
2024-01-16T07:59:31.474Z,-6.30
2024-01-16T08:01:58.411Z,-6.20
2024-01-16T08:04:25.600Z,-6.10
2024-01-16T08:06:53.996Z,-6.00
2024-01-16T08:09:21.382Z,-5.80
2024-01-16T08:11:48.643Z,-5.60
2024-01-16T08:14:15.948Z,-5.50
2024-01-16T08:16:42.974Z,-5.30
2024-01-16T08:19:10.005Z,-5.20
2024-01-16T08:21:37.440Z,-5.20
2024-01-16T08:24:04.638Z,-5.10
2024-01-16T08:26:31.599Z,-5.00
2024-01-16T08:28:59.119Z,-4.90
2024-01-16T08:31:26.023Z,-4.80
2024-01-16T08:33:54.517Z,-4.70
2024-01-16T08:36:21.832Z,-4.60
2024-01-16T08:38:48.978Z,-4.50
2024-01-16T08:41:15.996Z,-4.40
2024-01-16T08:43:42.953Z,-4.30
2024-01-16T08:46:09.900Z,-4.20
2024-01-16T08:48:37.476Z,-4.10
2024-01-16T08:51:08.751Z,-4.00
2024-01-16T08:53:38.249Z,-3.90
2024-01-16T08:56:07.997Z,-3.80
2024-01-16T08:58:39.489Z,-3.70
2024-01-16T09:01:07.031Z,-3.50
2024-01-16T09:03:37.354Z,-3.40
2024-01-16T09:06:04.957Z,-3.40
2024-01-16T09:08:33.171Z,-3.30
2024-01-16T09:11:00.271Z,-3.20
2024-01-16T09:13:27.265Z,-3.10
2024-01-16T09:15:54.299Z,-3.10
2024-01-16T09:18:21.525Z,-3.00
2024-01-16T09:20:49.713Z,-2.90
2024-01-16T09:23:16.760Z,-2.80
2024-01-16T09:25:46.741Z,-2.80
2024-01-16T09:28:15.962Z,-2.50
2024-01-16T09:30:43.732Z,-2.40
2024-01-16T09:33:11.927Z,-2.40
2024-01-16T09:35:39.003Z,-2.30
2024-01-16T09:38:08.922Z,-2.30
2024-01-16T09:40:36.629Z,-2.20
2024-01-16T09:43:05.617Z,-2.10
2024-01-16T09:45:33.013Z,-2.00
2024-01-16T09:48:01.849Z,-1.90
2024-01-16T09:50:29.041Z,-1.80
2024-01-16T09:52:59.193Z,-1.80
2024-01-16T09:55:27.049Z,-1.70
2024-01-16T09:57:54.557Z,-1.60
2024-01-16T10:00:22.250Z,-1.40
2024-01-16T10:02:51.202Z,-1.30
2024-01-16T10:05:18.173Z,-1.20
2024-01-16T10:07:45.370Z,-1.10
2024-01-16T10:10:13.102Z,-1.00
2024-01-16T10:12:40.888Z,-0.90
2024-01-16T10:15:09.138Z,-0.90
2024-01-16T10:17:40.471Z,-1.00
2024-01-16T10:20:08.782Z,-1.00
2024-01-16T10:22:35.836Z,-1.00
2024-01-16T10:25:12.591Z,-1.10
2024-01-16T10:27:43.030Z,-1.00
2024-01-16T10:30:11.454Z,-0.90
2024-01-16T10:32:41.598Z,-0.70
2024-01-16T10:35:12.402Z,-0.60
2024-01-16T10:37:48.645Z,-0.70
2024-01-16T10:40:21.734Z,-0.80
2024-01-16T10:43:00.215Z,-0.90
2024-01-16T10:45:27.483Z,-0.70
2024-01-16T10:48:05.845Z,-0.80
2024-01-16T10:50:34.076Z,-0.80
2024-01-16T10:53:04.856Z,-0.90
2024-01-16T10:55:39.400Z,-0.60
2024-01-16T10:58:10.064Z,-0.30
2024-01-16T11:00:45.426Z,0.00
2024-01-16T11:03:24.079Z,0.20
2024-01-16T11:05:51.991Z,0.30
2024-01-16T11:08:19.520Z,0.40
2024-01-16T11:10:48.165Z,0.10
2024-01-16T11:13:15.744Z,0.00
2024-01-16T11:15:43.117Z,-0.10
2024-01-16T11:18:11.589Z,0.00
2024-01-16T11:21:01.579Z,0.00
2024-01-16T11:23:28.253Z,0.10
2024-01-16T11:25:55.310Z,0.20
2024-01-16T11:28:29.092Z,0.30
2024-01-16T11:30:57.943Z,0.50
2024-01-16T11:33:34.760Z,0.50
2024-01-16T11:36:02.887Z,0.30
2024-01-16T11:38:35.128Z,0.40
2024-01-16T11:41:02.011Z,0.50
2024-01-16T11:43:35.283Z,0.80
2024-01-16T11:46:03.471Z,1.00
2024-01-16T11:48:30.513Z,0.90
2024-01-16T11:50:57.961Z,0.90
2024-01-16T11:53:37.562Z,1.10
2024-01-16T11:56:43.725Z,1.20
2024-01-16T11:59:55.920Z,1.00
2024-01-16T12:02:33.425Z,1.00
2024-01-16T12:05:07.629Z,0.90
2024-01-16T12:07:51.720Z,1.10
2024-01-16T12:10:20.158Z,0.90
2024-01-16T12:12:48.704Z,0.80
2024-01-16T12:15:17.682Z,0.60
2024-01-16T12:17:56.142Z,0.80
2024-01-16T12:20:24.565Z,0.60
2024-01-16T12:23:10.895Z,0.60
2024-01-16T12:26:01.100Z,0.40
2024-01-16T12:30:56.039Z,0.90
2024-01-16T12:33:23.736Z,1.10
2024-01-16T12:35:51.153Z,1.20
2024-01-16T12:38:18.662Z,1.00
2024-01-16T12:40:51.160Z,1.10
2024-01-16T12:43:21.500Z,1.20
2024-01-16T12:45:56.859Z,1.30
2024-01-16T12:48:26.268Z,1.60
2024-01-16T12:51:01.646Z,1.90
2024-01-16T12:53:29.130Z,1.80
2024-01-16T12:56:00.994Z,2.00
2024-01-16T12:58:37.280Z,2.00
2024-01-16T13:01:34.192Z,1.90
2024-01-16T13:04:08.414Z,1.70
2024-01-16T13:06:35.941Z,1.70
2024-01-16T13:09:16.630Z,1.50
2024-01-16T13:11:56.206Z,1.30
2024-01-16T13:14:24.484Z,1.50
2024-01-16T13:16:58.873Z,1.60
2024-01-16T13:19:26.874Z,1.80
2024-01-16T13:21:54.840Z,2.00
2024-01-16T13:24:22.826Z,2.10
2024-01-16T13:26:50.752Z,2.00
2024-01-16T13:29:17.834Z,1.80
2024-01-16T13:31:45.081Z,1.80
2024-01-16T13:34:12.337Z,1.70
2024-01-16T13:36:54.348Z,1.40
2024-01-16T13:39:26.691Z,1.30
2024-01-16T13:41:54.342Z,0.80
2024-01-16T13:44:21.297Z,0.60
2024-01-16T13:46:57.706Z,0.60
2024-01-16T13:49:34.673Z,0.50
2024-01-16T13:52:02.249Z,0.40
2024-01-16T13:54:29.093Z,0.30
2024-01-16T13:57:05.620Z,0.30
2024-01-16T13:59:35.575Z,0.20
2024-01-16T14:02:05.434Z,0.10
2024-01-16T14:04:32.577Z,-0.10
2024-01-16T14:07:11.098Z,-0.10
2024-01-16T14:09:43.303Z,-0.20
2024-01-16T14:12:11.293Z,-0.20
2024-01-16T14:14:40.056Z,-0.10
2024-01-16T14:17:07.053Z,0.10
2024-01-16T14:19:37.794Z,0.00
2024-01-16T14:22:05.507Z,0.10
2024-01-16T14:24:32.417Z,0.00
2024-01-16T14:26:59.286Z,0.00
2024-01-16T14:29:27.835Z,0.00
2024-01-16T14:31:56.965Z,0.10
2024-01-16T14:34:24.610Z,0.20
2024-01-16T14:36:51.781Z,0.30
2024-01-16T14:39:25.592Z,0.60
2024-01-16T14:41:52.730Z,0.70
2024-01-16T14:44:19.780Z,0.80
2024-01-16T14:46:48.956Z,1.00
2024-01-16T14:49:18.219Z,1.10
2024-01-16T14:51:45.272Z,1.00
2024-01-16T14:54:12.188Z,1.10
2024-01-16T14:56:39.584Z,1.10
2024-01-16T14:59:06.527Z,0.90
2024-01-16T15:01:33.945Z,0.80
2024-01-16T15:04:01.012Z,0.60
2024-01-16T15:06:28.739Z,0.60
2024-01-16T15:08:56.191Z,0.50
2024-01-16T15:11:23.603Z,0.40
2024-01-16T15:13:51.098Z,0.20
2024-01-16T15:16:19.671Z,0.10
2024-01-16T15:18:47.306Z,0.00
2024-01-16T15:21:14.317Z,-0.10
2024-01-16T15:23:44.030Z,-0.30
2024-01-16T15:26:11.205Z,-0.30
2024-01-16T15:28:41.053Z,-0.40
2024-01-16T15:31:11.256Z,-0.50
2024-01-16T15:33:38.342Z,-0.60
2024-01-16T15:36:05.685Z,-0.70
2024-01-16T15:38:32.890Z,-0.80
2024-01-16T15:41:00.105Z,-0.80
2024-01-16T15:43:27.107Z,-1.00
2024-01-16T15:45:56.737Z,-1.10
2024-01-16T15:48:23.641Z,-1.20
2024-01-16T15:50:50.687Z,-1.20
2024-01-16T15:53:17.847Z,-1.30
2024-01-16T15:55:45.111Z,-1.40
2024-01-16T15:58:12.097Z,-1.50
2024-01-16T16:00:39.225Z,-1.50
2024-01-16T16:03:07.488Z,-1.60
2024-01-16T16:05:34.921Z,-1.60
2024-01-16T16:08:02.056Z,-1.60
2024-01-16T16:10:28.999Z,-1.60
2024-01-16T16:12:56.076Z,-1.70
2024-01-16T16:15:23.438Z,-1.70
2024-01-16T16:17:51.662Z,-1.90
2024-01-16T16:20:25.233Z,-2.00
2024-01-16T16:22:52.381Z,-2.20
2024-01-16T16:25:19.218Z,-2.30
2024-01-16T16:27:46.086Z,-2.40
2024-01-16T16:30:13.725Z,-2.50
2024-01-16T16:32:40.987Z,-2.70
2024-01-16T16:35:08.142Z,-2.70
2024-01-16T16:37:35.094Z,-2.80
2024-01-16T16:40:02.133Z,-2.80
2024-01-16T16:42:28.996Z,-2.80
2024-01-16T16:44:56.292Z,-2.80
2024-01-16T16:47:23.438Z,-3.00
2024-01-16T16:49:50.372Z,-3.10
2024-01-16T16:52:17.732Z,-3.20
2024-01-16T16:54:47.469Z,-3.30
2024-01-16T16:57:14.860Z,-3.30
2024-01-16T16:59:41.976Z,-3.30
2024-01-16T17:02:08.914Z,-3.30
2024-01-16T17:04:35.961Z,-3.30
2024-01-16T17:07:03.183Z,-3.30
2024-01-16T17:09:30.148Z,-3.40
2024-01-16T17:11:57.455Z,-3.40
2024-01-16T17:14:24.933Z,-3.40
2024-01-16T17:16:52.077Z,-3.50
2024-01-16T17:19:20.374Z,-3.50
2024-01-16T17:21:47.562Z,-3.50
2024-01-16T17:24:15.259Z,-3.70
2024-01-16T17:26:43.980Z,-3.70
2024-01-16T17:29:10.903Z,-3.80
2024-01-16T17:31:40.633Z,-3.80
2024-01-16T17:34:07.836Z,-4.00
2024-01-16T17:36:38.074Z,-4.00
2024-01-16T17:39:06.235Z,-4.00
2024-01-16T17:41:37.813Z,-4.10
2024-01-16T17:44:05.448Z,-4.10
2024-01-16T17:46:32.324Z,-4.10
2024-01-16T17:48:59.235Z,-4.10
2024-01-16T17:51:26.534Z,-4.20
2024-01-16T17:53:54.106Z,-4.20
2024-01-16T17:56:22.532Z,-4.20
2024-01-16T17:58:50.599Z,-4.30
2024-01-16T18:01:17.446Z,-4.40
2024-01-16T18:03:48.658Z,-4.50
2024-01-16T18:06:17.816Z,-4.60
2024-01-16T18:08:45.334Z,-4.60
2024-01-16T18:11:13.779Z,-4.60
2024-01-16T18:13:43.272Z,-4.70
2024-01-16T18:16:11.912Z,-4.70
2024-01-16T18:18:39.177Z,-4.80
2024-01-16T18:21:07.289Z,-4.80
2024-01-16T18:23:35.825Z,-4.80
2024-01-16T18:26:05.244Z,-4.90
2024-01-16T18:28:32.319Z,-4.90
2024-01-16T18:30:59.817Z,-4.90
2024-01-16T18:33:27.102Z,-5.00
2024-01-16T18:35:58.741Z,-5.10
2024-01-16T18:38:26.953Z,-5.20
2024-01-16T18:40:54.341Z,-5.30
2024-01-16T18:43:21.498Z,-5.40
2024-01-16T18:45:48.388Z,-5.40
2024-01-16T18:48:15.557Z,-5.40
2024-01-16T18:50:43.337Z,-5.40
2024-01-16T18:53:10.263Z,-5.50
2024-01-16T18:55:37.771Z,-5.40
2024-01-16T18:58:05.798Z,-5.50
2024-01-16T19:00:32.813Z,-5.50
2024-01-16T19:03:00.532Z,-5.50
2024-01-16T19:05:27.670Z,-5.80
2024-01-16T19:07:54.729Z,-6.10
2024-01-16T19:10:21.846Z,-6.00
2024-01-16T19:12:49.106Z,-6.10
2024-01-16T19:15:20.682Z,-6.10
2024-01-16T19:17:49.406Z,-6.10
2024-01-16T19:20:16.858Z,-6.20
2024-01-16T19:22:45.619Z,-6.30
2024-01-16T19:25:15.999Z,-6.50
2024-01-16T19:27:45.344Z,-6.50
2024-01-16T19:30:15.319Z,-6.60
2024-01-16T19:32:43.983Z,-6.70
2024-01-16T19:35:13.046Z,-6.70
2024-01-16T19:37:41.457Z,-6.80
2024-01-16T19:40:14.460Z,-6.90
2024-01-16T19:42:42.189Z,-6.90
2024-01-16T19:45:11.459Z,-6.90
2024-01-16T19:47:40.946Z,-6.90
2024-01-16T19:50:20.296Z,-6.80
2024-01-16T19:52:50.699Z,-7.00
2024-01-16T19:55:25.136Z,-7.00
2024-01-16T19:57:52.649Z,-7.00
2024-01-16T20:00:20.732Z,-7.00
2024-01-16T20:02:48.758Z,-6.90
2024-01-16T20:05:18.938Z,-6.80
2024-01-16T20:07:46.767Z,-6.80
2024-01-16T20:10:14.642Z,-6.70
2024-01-16T20:12:45.512Z,-6.70
2024-01-16T20:15:14.195Z,-6.80
2024-01-16T20:17:42.431Z,-7.00
2024-01-16T20:20:11.516Z,-7.10
2024-01-16T20:22:38.654Z,-7.20
2024-01-16T20:25:06.448Z,-7.30
2024-01-16T20:27:33.810Z,-7.30
2024-01-16T20:30:00.961Z,-7.30
2024-01-16T20:32:28.443Z,-7.20
2024-01-16T20:34:59.478Z,-7.30
2024-01-16T20:37:27.289Z,-7.30
2024-01-16T20:39:54.140Z,-7.20
2024-01-16T20:42:21.380Z,-7.30
2024-01-16T20:44:48.294Z,-7.40
2024-01-16T20:47:17.880Z,-7.50
2024-01-16T20:49:47.242Z,-7.60
2024-01-16T20:52:14.616Z,-7.70
2024-01-16T20:54:41.731Z,-7.60
2024-01-16T20:57:08.993Z,-7.60
2024-01-16T20:59:36.730Z,-7.70
2024-01-16T21:02:03.751Z,-7.80
2024-01-16T21:04:31.041Z,-7.80
2024-01-16T21:07:04.644Z,-7.90
2024-01-16T21:09:31.829Z,-7.90
2024-01-16T21:12:01.317Z,-7.90
2024-01-16T21:14:30.184Z,-7.90
2024-01-16T21:16:57.089Z,-7.90
2024-01-16T21:19:23.958Z,-7.80
2024-01-16T21:21:55.671Z,-7.80
2024-01-16T21:24:22.838Z,-7.70
2024-01-16T21:26:50.029Z,-7.80
2024-01-16T21:29:17.085Z,-7.80
2024-01-16T21:31:49.668Z,-7.70
2024-01-16T21:34:22.808Z,-7.80
2024-01-16T21:36:52.035Z,-7.80
2024-01-16T21:39:19.876Z,-7.80
2024-01-16T21:41:47.527Z,-7.90
2024-01-16T21:44:14.817Z,-7.80
2024-01-16T21:46:43.131Z,-8.00
2024-01-16T21:49:11.000Z,-8.00
2024-01-16T21:51:38.121Z,-8.00
2024-01-16T21:54:06.144Z,-8.00
2024-01-16T21:56:33.837Z,-8.00
2024-01-16T21:59:00.810Z,-8.10
2024-01-16T22:01:29.667Z,-8.20
2024-01-16T22:03:56.891Z,-8.20
2024-01-16T22:06:24.256Z,-8.20
2024-01-16T22:08:52.818Z,-8.20
2024-01-16T22:11:20.618Z,-8.10
2024-01-16T22:13:47.585Z,-8.00
2024-01-16T22:16:14.594Z,-7.80
2024-01-16T22:18:43.734Z,-7.70
2024-01-16T22:21:12.519Z,-7.60
2024-01-16T22:23:39.520Z,-7.70
2024-01-16T22:26:07.240Z,-7.70
2024-01-16T22:28:34.154Z,-7.70
2024-01-16T22:31:01.009Z,-7.50
2024-01-16T22:33:28.828Z,-7.60
2024-01-16T22:35:55.931Z,-7.50
2024-01-16T22:38:22.834Z,-7.60
2024-01-16T22:40:49.708Z,-7.50
2024-01-16T22:43:16.635Z,-7.40
2024-01-16T22:45:43.547Z,-7.40
2024-01-16T22:48:12.662Z,-7.40
2024-01-16T22:50:43.796Z,-7.50
2024-01-16T22:53:11.244Z,-7.40
2024-01-16T22:55:38.632Z,-7.30
2024-01-16T22:58:08.940Z,-7.10
2024-01-16T23:00:41.868Z,-7.00
2024-01-16T23:03:10.567Z,-7.00
2024-01-16T23:05:37.628Z,-6.80
2024-01-16T23:08:04.998Z,-6.70
2024-01-16T23:10:32.829Z,-6.70
2024-01-16T23:12:59.670Z,-6.60
2024-01-16T23:15:26.548Z,-6.50
2024-01-16T23:17:53.822Z,-6.50
2024-01-16T23:20:21.676Z,-6.40
2024-01-16T23:22:48.644Z,-6.50
2024-01-16T23:25:17.101Z,-6.50
2024-01-16T23:27:44.452Z,-6.50
2024-01-16T23:30:12.845Z,-6.40
2024-01-16T23:32:40.431Z,-6.30
2024-01-16T23:35:07.765Z,-6.30
2024-01-16T23:37:35.293Z,-6.20
2024-01-16T23:40:02.322Z,-6.10
2024-01-16T23:42:32.569Z,-6.00
2024-01-16T23:45:01.328Z,-6.00
2024-01-16T23:47:28.526Z,-6.00
2024-01-16T23:49:56.741Z,-6.00
2024-01-16T23:52:23.734Z,-5.90
2024-01-16T23:54:52.213Z,-5.80
2024-01-16T23:57:19.165Z,-5.70
2024-01-16T23:59:46.664Z,-5.70
